createdAt,value
2023-05-15T00:00:07.514Z,6.80
2023-05-15T00:01:07.509Z,6.40
2023-05-15T00:02:07.516Z,6.80
2023-05-15T00:03:07.693Z,7.20
2023-05-15T00:04:07.460Z,6.60
2023-05-15T00:05:07.553Z,6.80
2023-05-15T00:06:07.438Z,6.90
2023-05-15T00:07:07.420Z,7.50
2023-05-15T00:08:07.455Z,7.00
2023-05-15T00:09:07.395Z,7.20
2023-05-15T00:10:07.403Z,6.80
2023-05-15T00:11:07.382Z,7.20
2023-05-15T00:12:07.369Z,7.20
2023-05-15T00:13:07.368Z,7.20
2023-05-15T00:14:07.372Z,7.40
2023-05-15T00:15:07.328Z,7.20
2023-05-15T00:16:07.340Z,6.60
2023-05-15T00:17:07.318Z,7.30
2023-05-15T00:18:07.368Z,6.80
2023-05-15T00:19:07.362Z,6.80
2023-05-15T00:20:07.279Z,7.30
2023-05-15T00:21:07.264Z,7.00
2023-05-15T00:22:07.246Z,6.90
2023-05-15T00:23:07.236Z,7.70
2023-05-15T00:24:07.257Z,6.60
2023-05-15T00:25:07.219Z,7.60
2023-05-15T00:26:13.252Z,6.90
2023-05-15T00:27:07.191Z,7.00
2023-05-15T00:28:07.184Z,6.80
2023-05-15T00:29:07.192Z,7.40
2023-05-15T00:30:07.161Z,7.30
2023-05-15T00:31:07.178Z,7.00
2023-05-15T00:32:07.186Z,7.60
2023-05-15T00:33:07.195Z,7.10
2023-05-15T00:34:07.138Z,6.90
2023-05-15T00:35:07.134Z,7.00
2023-05-15T00:36:07.118Z,7.40
2023-05-15T00:37:07.108Z,7.00
2023-05-15T00:38:07.092Z,7.10
2023-05-15T00:39:07.106Z,7.60
2023-05-15T00:40:07.107Z,7.10
2023-05-15T00:41:07.073Z,7.70
2023-05-15T00:42:07.037Z,7.00
2023-05-15T00:43:07.067Z,7.30
2023-05-15T00:44:07.043Z,7.80
2023-05-15T00:45:07.011Z,7.30
2023-05-15T00:46:07.012Z,7.00
2023-05-15T00:47:07.029Z,7.30
2023-05-15T00:48:06.998Z,7.00
2023-05-15T00:49:07.001Z,7.70
2023-05-15T00:50:06.976Z,7.20
2023-05-15T00:51:06.952Z,7.60
2023-05-15T00:52:06.937Z,7.60
2023-05-15T00:53:06.941Z,6.60
2023-05-15T00:54:06.962Z,7.40
2023-05-15T00:55:06.949Z,7.30
2023-05-15T00:56:06.877Z,7.40
2023-05-15T00:57:06.904Z,7.20
2023-05-15T00:58:06.867Z,7.50
2023-05-15T00:59:06.865Z,7.10
2023-05-15T01:00:06.862Z,7.50
2023-05-15T01:01:08.397Z,6.80
2023-05-15T01:02:06.872Z,7.30
2023-05-15T01:03:06.868Z,7.30
2023-05-15T01:04:06.825Z,7.00
2023-05-15T01:05:06.788Z,7.10
2023-05-15T01:06:06.817Z,7.50
2023-05-15T01:07:06.760Z,6.90
2023-05-15T01:08:06.752Z,7.20
2023-05-15T01:09:06.745Z,7.40
2023-05-15T01:10:06.727Z,7.30
2023-05-15T01:11:06.729Z,7.80
2023-05-15T01:12:06.725Z,7.60
2023-05-15T01:13:06.686Z,7.00
2023-05-15T01:14:06.740Z,7.40
2023-05-15T01:15:06.696Z,6.90
2023-05-15T01:16:06.657Z,7.50
2023-05-15T01:17:06.655Z,7.80
2023-05-15T01:18:06.685Z,7.40
2023-05-15T01:19:06.738Z,7.00
2023-05-15T01:20:06.700Z,7.10
2023-05-15T01:21:06.622Z,7.40
2023-05-15T01:22:06.584Z,7.10
2023-05-15T01:23:06.596Z,6.70
2023-05-15T01:24:06.616Z,7.60
2023-05-15T01:25:06.607Z,6.70
2023-05-15T01:26:06.579Z,7.30
2023-05-15T01:27:06.528Z,7.70
2023-05-15T01:28:06.524Z,7.30
2023-05-15T01:29:06.565Z,7.90
2023-05-15T01:30:06.533Z,6.90
2023-05-15T01:31:06.493Z,6.80
2023-05-15T01:32:06.579Z,6.90
2023-05-15T01:33:06.533Z,7.50
2023-05-15T01:34:06.477Z,7.60
2023-05-15T01:35:06.447Z,7.30
2023-05-15T01:36:06.438Z,7.50
2023-05-15T01:37:06.417Z,7.30
2023-05-15T01:38:06.485Z,7.20
2023-05-15T01:39:06.405Z,7.70
2023-05-15T01:40:06.425Z,7.40
2023-05-15T01:41:06.368Z,7.00
2023-05-15T01:42:06.362Z,7.40
2023-05-15T01:43:06.355Z,7.00
2023-05-15T01:44:06.357Z,7.30
2023-05-15T01:45:06.354Z,7.20
2023-05-15T01:46:06.351Z,7.00
2023-05-15T01:47:06.302Z,7.50
2023-05-15T01:48:06.336Z,7.30
2023-05-15T01:49:06.327Z,6.80
2023-05-15T01:50:06.810Z,7.10
2023-05-15T01:51:06.264Z,7.80
2023-05-15T01:52:06.230Z,7.90
2023-05-15T01:53:06.243Z,7.70
2023-05-15T01:54:06.263Z,7.40
2023-05-15T01:55:06.230Z,7.20
2023-05-15T01:56:06.217Z,7.50
2023-05-15T01:57:06.225Z,7.20
2023-05-15T01:58:06.187Z,7.20
2023-05-15T01:59:06.192Z,7.00
2023-05-15T02:00:06.164Z,7.30
2023-05-15T02:01:06.166Z,7.60
2023-05-15T02:02:06.318Z,7.40
2023-05-15T02:03:06.194Z,7.20
2023-05-15T02:04:06.196Z,7.50
2023-05-15T02:05:06.102Z,7.30
2023-05-15T02:06:06.107Z,7.20
2023-05-15T02:07:06.089Z,7.30
2023-05-15T02:08:06.925Z,7.80
2023-05-15T02:09:06.076Z,7.80
2023-05-15T02:10:06.068Z,8.40
2023-05-15T02:11:06.041Z,7.50
2023-05-15T02:12:06.025Z,7.70
2023-05-15T02:13:06.025Z,7.50
2023-05-15T02:14:06.049Z,7.40
2023-05-15T02:15:06.009Z,7.20
2023-05-15T02:16:06.049Z,7.30
2023-05-15T02:17:05.996Z,7.50
2023-05-15T02:18:06.761Z,7.40
2023-05-15T02:19:06.021Z,7.00
2023-05-15T02:20:05.922Z,7.60
2023-05-15T02:21:05.926Z,7.40
2023-05-15T02:22:05.908Z,8.00
2023-05-15T02:23:05.915Z,7.80
2023-05-15T02:24:05.896Z,7.30
2023-05-15T02:25:05.899Z,7.60
2023-05-15T02:26:05.879Z,7.40
2023-05-15T02:27:05.867Z,7.70
2023-05-15T02:28:05.877Z,7.40
2023-05-15T02:29:05.884Z,8.00
2023-05-15T02:30:05.858Z,7.80
2023-05-15T02:31:05.811Z,7.70
2023-05-15T02:32:05.879Z,7.70
2023-05-15T02:33:05.859Z,7.70
2023-05-15T02:34:05.814Z,7.30
2023-05-15T02:35:05.817Z,8.40
2023-05-15T02:36:05.779Z,8.00
2023-05-15T02:37:05.753Z,8.20
2023-05-15T02:38:05.744Z,7.60
2023-05-15T02:39:05.748Z,8.00
2023-05-15T02:40:05.723Z,8.00
2023-05-15T02:41:05.699Z,8.00
2023-05-15T02:42:05.685Z,7.70
2023-05-15T02:43:05.684Z,7.70
2023-05-15T02:44:05.677Z,8.20
2023-05-15T02:45:05.669Z,7.90
2023-05-15T02:46:05.674Z,7.50
2023-05-15T02:47:05.667Z,8.20
2023-05-15T02:48:05.685Z,7.90
2023-05-15T02:49:05.633Z,7.60
2023-05-15T02:50:05.642Z,7.90
2023-05-15T02:51:05.594Z,8.50
2023-05-15T02:52:05.595Z,8.10
2023-05-15T02:53:05.592Z,8.30
2023-05-15T02:54:05.640Z,8.20
2023-05-15T02:55:05.545Z,8.00
2023-05-15T02:56:05.534Z,7.60
2023-05-15T02:57:05.579Z,7.80
2023-05-15T02:58:05.550Z,8.40
2023-05-15T02:59:05.515Z,7.80
2023-05-15T03:00:05.539Z,7.90
2023-05-15T03:01:05.522Z,8.10
2023-05-15T03:02:05.518Z,7.60
2023-05-15T03:03:05.453Z,8.20
2023-05-15T03:04:05.513Z,8.20
2023-05-15T03:05:06.447Z,8.60
2023-05-15T03:06:05.450Z,8.50
2023-05-15T03:07:05.431Z,8.90
2023-05-15T03:08:05.426Z,8.40
2023-05-15T03:09:05.399Z,8.50
2023-05-15T03:10:06.215Z,8.10
2023-05-15T03:11:05.523Z,8.70
2023-05-15T03:12:05.384Z,8.20
2023-05-15T03:13:05.366Z,8.70
2023-05-15T03:14:05.337Z,8.80
2023-05-15T03:15:05.362Z,7.70
2023-05-15T03:16:05.360Z,8.40
2023-05-15T03:17:05.364Z,9.20
2023-05-15T03:18:05.321Z,8.30
2023-05-15T03:19:05.364Z,8.60
2023-05-15T03:20:05.305Z,8.50
2023-05-15T03:21:05.300Z,8.30
2023-05-15T03:22:05.929Z,8.40
2023-05-15T03:23:05.242Z,8.50
2023-05-15T03:24:05.226Z,8.50
2023-05-15T03:25:05.257Z,8.40
2023-05-15T03:26:05.212Z,8.50
2023-05-15T03:27:05.239Z,8.20
2023-05-15T03:28:05.219Z,8.40
2023-05-15T03:29:05.182Z,9.60
2023-05-15T03:30:05.169Z,8.60
2023-05-15T03:31:05.250Z,8.70
2023-05-15T03:32:05.156Z,8.20
2023-05-15T03:33:05.169Z,9.00
2023-05-15T03:34:05.149Z,8.30
2023-05-15T03:35:05.144Z,8.70
2023-05-15T03:36:05.116Z,8.90
2023-05-15T03:37:05.113Z,8.70
2023-05-15T03:38:05.085Z,8.80
2023-05-15T03:39:05.105Z,8.60
2023-05-15T03:40:05.120Z,7.90
2023-05-15T03:41:05.072Z,8.70
2023-05-15T03:42:05.038Z,8.60
2023-05-15T03:43:05.025Z,8.50
2023-05-15T03:44:05.019Z,9.10
2023-05-15T03:45:05.070Z,8.60
2023-05-15T03:46:05.068Z,8.90
2023-05-15T03:47:05.008Z,9.70
2023-05-15T03:48:05.055Z,8.50
2023-05-15T03:49:04.980Z,8.90
2023-05-15T03:50:04.996Z,8.40
2023-05-15T03:51:04.957Z,8.50
2023-05-15T03:52:04.988Z,8.50
2023-05-15T03:53:04.938Z,9.00
2023-05-15T03:54:04.923Z,8.60
2023-05-15T03:55:04.935Z,8.40
2023-05-15T03:56:04.910Z,8.40
2023-05-15T03:57:04.860Z,8.20
2023-05-15T03:58:04.880Z,9.30
2023-05-15T03:59:04.866Z,8.70
2023-05-15T04:00:04.868Z,9.00
2023-05-15T04:01:04.858Z,9.10
2023-05-15T04:02:05.795Z,8.30
2023-05-15T04:03:04.916Z,9.30
2023-05-15T04:04:04.818Z,9.40
2023-05-15T04:05:04.892Z,9.10
2023-05-15T04:06:04.754Z,8.60
2023-05-15T04:07:04.761Z,9.00
2023-05-15T04:08:04.777Z,8.40
2023-05-15T04:09:04.745Z,9.10
2023-05-15T04:10:04.781Z,8.60
2023-05-15T04:11:04.704Z,8.60
2023-05-15T04:12:04.755Z,9.40
2023-05-15T04:13:04.694Z,8.70
2023-05-15T04:14:04.695Z,8.90
2023-05-15T04:15:04.736Z,9.10
2023-05-15T04:16:04.762Z,8.40
2023-05-15T04:17:04.679Z,8.50
2023-05-15T04:18:04.724Z,8.60
2023-05-15T04:19:04.671Z,8.80
2023-05-15T04:20:04.745Z,7.90
2023-05-15T04:21:04.639Z,8.30
2023-05-15T04:22:04.616Z,8.80
2023-05-15T04:23:04.589Z,8.80
2023-05-15T04:24:04.573Z,8.60
2023-05-15T04:25:04.604Z,8.40
2023-05-15T04:26:04.581Z,8.70
2023-05-15T04:27:04.660Z,8.40
2023-05-15T04:28:04.524Z,9.30
2023-05-15T04:29:04.992Z,8.60
2023-05-15T04:30:04.590Z,8.60
2023-05-15T04:31:04.506Z,8.70
2023-05-15T04:32:04.529Z,8.50
2023-05-15T04:33:04.551Z,8.30
2023-05-15T04:34:04.522Z,8.60
2023-05-15T04:35:04.504Z,8.30
2023-05-15T04:36:04.455Z,8.80
2023-05-15T04:37:04.450Z,8.50
2023-05-15T04:38:04.466Z,8.20
2023-05-15T04:39:04.426Z,8.30
2023-05-15T04:40:04.461Z,8.60
2023-05-15T04:41:04.387Z,8.60
2023-05-15T04:42:04.377Z,8.20
2023-05-15T04:43:04.411Z,8.20
2023-05-15T04:44:04.356Z,8.90
2023-05-15T04:45:04.381Z,8.50
2023-05-15T04:46:04.447Z,8.30
2023-05-15T04:47:04.327Z,8.60
2023-05-15T04:48:04.916Z,8.40
2023-05-15T04:49:04.308Z,8.70
2023-05-15T04:50:04.360Z,8.60
2023-05-15T04:51:04.301Z,8.60
2023-05-15T04:52:04.293Z,8.80
2023-05-15T04:53:04.258Z,8.50
2023-05-15T04:54:04.256Z,8.30
2023-05-15T04:55:04.258Z,8.30
2023-05-15T04:56:04.230Z,8.10
2023-05-15T04:57:04.220Z,8.30
2023-05-15T04:58:04.193Z,8.40
2023-05-15T04:59:04.174Z,9.20
2023-05-15T05:00:04.193Z,9.00
2023-05-15T05:01:04.556Z,8.30
2023-05-15T05:02:04.215Z,8.70
2023-05-15T05:03:04.163Z,8.30
2023-05-15T05:04:04.236Z,9.30
2023-05-15T05:05:04.152Z,9.10
2023-05-15T05:06:04.104Z,9.00
2023-05-15T05:07:04.126Z,8.20
2023-05-15T05:08:04.082Z,8.50
2023-05-15T05:09:04.108Z,8.70
2023-05-15T05:10:04.079Z,8.30
2023-05-15T05:11:04.057Z,8.40
2023-05-15T05:12:04.049Z,8.40
2023-05-15T05:13:04.062Z,8.90
2023-05-15T05:14:04.014Z,8.20
2023-05-15T05:15:04.030Z,9.40
2023-05-15T05:16:04.043Z,9.00
2023-05-15T05:17:04.014Z,9.00
2023-05-15T05:18:04.031Z,9.10
2023-05-15T05:19:04.026Z,8.40
2023-05-15T05:20:04.000Z,9.40
2023-05-15T05:21:03.958Z,9.10
2023-05-15T05:22:03.951Z,9.10
2023-05-15T05:23:03.938Z,9.60
2023-05-15T05:24:04.264Z,9.10
2023-05-15T05:25:03.979Z,8.90
2023-05-15T05:26:05.374Z,10.00
2023-05-15T05:27:03.869Z,8.80
2023-05-15T05:28:03.864Z,8.90
2023-05-15T05:29:03.884Z,9.30
2023-05-15T05:30:03.915Z,9.20
2023-05-15T05:31:03.874Z,8.70
2023-05-15T05:32:03.816Z,9.00
2023-05-15T05:33:03.846Z,8.50
2023-05-15T05:34:03.810Z,9.80
2023-05-15T05:35:03.824Z,9.60
2023-05-15T05:36:03.812Z,8.90
2023-05-15T05:37:03.769Z,8.80
2023-05-15T05:38:03.783Z,10.20
2023-05-15T05:39:03.749Z,9.40
2023-05-15T05:40:03.754Z,10.10
2023-05-15T05:41:03.714Z,10.30
2023-05-15T05:42:03.726Z,10.30
2023-05-15T05:43:03.711Z,11.30
2023-05-15T05:44:03.693Z,11.50
2023-05-15T05:45:03.705Z,12.40
2023-05-15T05:46:03.648Z,12.40
2023-05-15T05:47:03.729Z,12.10
2023-05-15T05:48:03.696Z,11.90
2023-05-15T05:49:03.653Z,12.20
2023-05-15T05:50:03.651Z,12.00
2023-05-15T05:51:03.704Z,13.00
2023-05-15T05:52:03.598Z,12.00
2023-05-15T05:53:03.602Z,12.70
2023-05-15T05:54:03.565Z,12.40
2023-05-15T05:55:03.615Z,11.70
2023-05-15T05:56:03.535Z,13.00
2023-05-15T05:57:03.544Z,11.80
2023-05-15T05:58:06.506Z,13.50
2023-05-15T05:59:03.539Z,12.40
2023-05-15T06:00:03.513Z,11.20
2023-05-15T06:01:03.487Z,13.10
2023-05-15T06:02:03.535Z,11.40
2023-05-15T06:03:03.499Z,11.50
2023-05-15T06:04:03.537Z,11.60
2023-05-15T06:05:03.469Z,12.40
2023-05-15T06:06:03.446Z,11.00
2023-05-15T06:07:03.419Z,11.50
2023-05-15T06:08:03.429Z,12.20
2023-05-15T06:09:03.408Z,12.00
2023-05-15T06:10:03.422Z,12.80
2023-05-15T06:11:03.371Z,13.00
2023-05-15T06:12:03.358Z,13.10
2023-05-15T06:13:03.354Z,11.80
2023-05-15T06:14:03.343Z,12.40
2023-05-15T06:15:03.371Z,13.00
2023-05-15T06:16:03.324Z,12.90
2023-05-15T06:17:03.400Z,12.30
2023-05-15T06:18:03.322Z,12.30
2023-05-15T06:19:03.360Z,12.20
2023-05-15T06:20:03.315Z,12.10
2023-05-15T06:21:03.283Z,12.60
2023-05-15T06:22:03.276Z,12.30
2023-05-15T06:23:03.276Z,12.40
2023-05-15T06:24:03.250Z,12.50
2023-05-15T06:25:03.247Z,12.00
2023-05-15T06:26:09.773Z,12.70
2023-05-15T06:27:03.191Z,11.90
2023-05-15T06:28:03.179Z,12.90
2023-05-15T06:29:03.191Z,12.00
2023-05-15T06:30:03.169Z,12.60
2023-05-15T06:31:03.268Z,12.20
2023-05-15T06:32:03.142Z,12.10
2023-05-15T06:33:03.178Z,11.80
2023-05-15T06:34:03.114Z,12.40
2023-05-15T06:35:03.200Z,12.20
2023-05-15T06:36:03.097Z,12.70
2023-05-15T06:37:03.101Z,12.20
2023-05-15T06:38:03.076Z,11.40
2023-05-15T06:39:03.057Z,12.60
2023-05-15T06:40:03.065Z,12.30
2023-05-15T06:41:03.039Z,11.20
2023-05-15T06:42:03.036Z,12.20
2023-05-15T06:43:03.030Z,12.10
2023-05-15T06:44:03.029Z,12.30
2023-05-15T06:45:03.038Z,12.20
2023-05-15T06:46:03.065Z,11.40
2023-05-15T06:48:16.499Z,12.20
2023-05-15T06:49:16.263Z,11.50
2023-05-15T06:50:15.529Z,11.80
2023-05-15T06:51:15.502Z,11.50
2023-05-15T06:52:15.497Z,11.50
2023-05-15T06:53:15.482Z,10.90
2023-05-15T06:54:15.522Z,12.50
2023-05-15T06:55:15.480Z,11.20
2023-05-15T06:56:15.442Z,11.50
2023-05-15T06:57:15.440Z,13.10
2023-05-15T06:58:15.425Z,12.50
2023-05-15T06:59:15.415Z,12.00
2023-05-15T07:00:15.424Z,12.50
2023-05-15T07:01:15.412Z,12.10
2023-05-15T07:02:15.503Z,12.30
2023-05-15T07:03:15.366Z,11.90
2023-05-15T07:04:18.247Z,11.60
2023-05-15T07:05:15.467Z,12.10
2023-05-15T07:06:15.340Z,12.10
2023-05-15T07:07:15.333Z,12.10
2023-05-15T07:08:15.329Z,11.60
2023-05-15T07:09:15.312Z,11.20
2023-05-15T07:10:15.319Z,11.30
2023-05-15T07:11:15.283Z,12.30
2023-05-15T07:12:15.299Z,12.00
2023-05-15T07:13:15.272Z,12.00
2023-05-15T07:14:15.251Z,11.30
2023-05-15T07:15:15.254Z,12.40
2023-05-15T07:16:15.251Z,11.40
2023-05-15T07:17:15.260Z,11.00
2023-05-15T07:18:15.245Z,11.70
2023-05-15T07:19:15.237Z,11.50
2023-05-15T07:20:15.225Z,11.90
2023-05-15T07:21:15.170Z,11.80
2023-05-15T07:22:15.171Z,11.60
2023-05-15T07:23:15.168Z,11.50
2023-05-15T07:24:15.163Z,10.60
2023-05-15T07:25:16.880Z,10.60
2023-05-15T07:26:23.771Z,10.30
2023-05-15T07:27:15.100Z,10.60
2023-05-15T07:28:15.093Z,9.60
2023-05-15T07:29:15.087Z,9.40
2023-05-15T07:30:15.096Z,9.80
2023-05-15T07:31:15.104Z,9.80
2023-05-15T07:32:15.068Z,9.00
2023-05-15T07:33:15.047Z,9.10
2023-05-15T07:34:15.040Z,9.10
2023-05-15T07:35:15.041Z,9.00
2023-05-15T07:36:15.035Z,9.20
2023-05-15T07:37:16.911Z,9.70
2023-05-15T07:38:15.021Z,10.00
2023-05-15T07:39:15.015Z,9.40
2023-05-15T07:40:14.974Z,9.50
2023-05-15T07:41:14.946Z,9.00
2023-05-15T07:42:14.949Z,8.50
2023-05-15T07:43:14.922Z,8.10
2023-05-15T07:44:14.914Z,9.20
2023-05-15T07:45:14.966Z,9.00
2023-05-15T07:46:14.951Z,9.50
2023-05-15T07:47:14.891Z,9.10
2023-05-15T07:48:14.872Z,8.00
2023-05-15T07:49:14.879Z,8.50
2023-05-15T07:50:14.865Z,8.70
2023-05-15T07:51:14.841Z,9.20
2023-05-15T07:52:14.844Z,9.10
2023-05-15T07:53:14.814Z,8.50
2023-05-15T07:54:14.805Z,8.30
2023-05-15T07:55:14.847Z,8.60
2023-05-15T07:56:14.789Z,8.20
2023-05-15T07:57:14.781Z,7.90
2023-05-15T07:58:14.774Z,7.20
2023-05-15T07:59:14.829Z,6.80
2023-05-15T08:00:14.768Z,7.30
2023-05-15T08:01:14.733Z,6.80
2023-05-15T08:02:14.802Z,6.50
2023-05-15T08:03:14.939Z,7.00
2023-05-15T08:04:14.725Z,7.40
2023-05-15T08:05:14.706Z,8.10
2023-05-15T08:06:14.672Z,7.00
2023-05-15T08:07:14.660Z,7.00
2023-05-15T08:08:14.663Z,7.90
2023-05-15T08:09:14.649Z,7.60
2023-05-15T08:10:14.663Z,7.90
2023-05-15T08:11:14.640Z,8.10
2023-05-15T08:12:14.607Z,7.90
2023-05-15T08:13:14.604Z,7.00
2023-05-15T08:14:14.610Z,6.60
2023-05-15T08:15:14.601Z,6.50
2023-05-15T08:16:14.611Z,6.20
2023-05-15T08:17:14.557Z,5.70
2023-05-15T08:18:14.537Z,6.20
2023-05-15T08:19:14.586Z,6.20
2023-05-15T08:20:14.532Z,5.70
2023-05-15T08:21:14.518Z,5.50
2023-05-15T08:22:14.529Z,6.20
2023-05-15T08:23:14.489Z,6.10
2023-05-15T08:24:14.479Z,5.60
2023-05-15T08:25:14.490Z,6.30
2023-05-15T08:26:14.453Z,6.20
2023-05-15T08:27:14.452Z,6.10
2023-05-15T08:28:14.439Z,5.70
2023-05-15T08:29:14.433Z,4.70
2023-05-15T08:30:14.443Z,4.80
2023-05-15T08:31:14.436Z,4.40
2023-05-15T08:32:14.390Z,4.40
2023-05-15T08:33:14.535Z,4.70
2023-05-15T08:34:14.377Z,4.90
2023-05-15T08:35:14.377Z,5.00
2023-05-15T08:36:14.437Z,4.60
2023-05-15T08:37:14.344Z,4.40
2023-05-15T08:38:14.334Z,4.50
2023-05-15T08:39:14.312Z,4.30
2023-05-15T08:40:14.324Z,4.60
2023-05-15T08:41:14.301Z,4.30
2023-05-15T08:42:14.280Z,4.40
2023-05-15T08:43:14.276Z,4.20
2023-05-15T08:44:14.265Z,4.70
2023-05-15T08:45:14.269Z,4.10
2023-05-15T08:46:14.282Z,4.00
2023-05-15T08:47:14.231Z,4.10
2023-05-15T08:48:14.335Z,3.80
2023-05-15T08:49:14.294Z,4.00
2023-05-15T08:50:14.270Z,4.10
2023-05-15T08:51:14.181Z,4.20
2023-05-15T08:52:14.180Z,4.20
2023-05-15T08:53:14.161Z,4.10
2023-05-15T08:54:14.216Z,3.80
2023-05-15T08:55:14.147Z,4.10
2023-05-15T08:56:14.171Z,3.90
2023-05-15T08:57:14.127Z,3.90
2023-05-15T08:58:14.177Z,3.50
2023-05-15T08:59:14.102Z,4.30
2023-05-15T09:00:14.118Z,3.50
2023-05-15T09:01:14.117Z,3.70
2023-05-15T09:02:14.141Z,3.60
2023-05-15T09:03:14.125Z,3.50
2023-05-15T09:04:14.131Z,3.50
2023-05-15T09:05:14.030Z,4.10
2023-05-15T09:06:14.072Z,4.00
2023-05-15T09:07:14.021Z,3.90
2023-05-15T09:08:14.078Z,3.70
2023-05-15T09:09:14.005Z,3.90
2023-05-15T09:10:14.122Z,4.00
2023-05-15T09:11:13.990Z,3.70
2023-05-15T09:12:13.953Z,4.20
2023-05-15T09:13:13.972Z,3.70
2023-05-15T09:14:13.936Z,3.70
2023-05-15T09:15:13.932Z,3.70
2023-05-15T09:16:13.994Z,4.00
2023-05-15T09:17:13.905Z,3.30
2023-05-15T09:18:13.941Z,3.80
2023-05-15T09:19:13.922Z,3.50
2023-05-15T09:20:13.876Z,3.40
2023-05-15T09:21:13.889Z,3.60
2023-05-15T09:22:18.810Z,3.50
2023-05-15T09:23:13.840Z,3.80
2023-05-15T09:24:13.832Z,3.50
2023-05-15T09:25:13.820Z,3.60
2023-05-15T09:26:13.826Z,3.90
2023-05-15T09:27:13.804Z,3.70
2023-05-15T09:28:13.788Z,4.10
2023-05-15T09:29:14.379Z,4.10
2023-05-15T09:30:13.759Z,3.40
2023-05-15T09:31:13.781Z,3.60
2023-05-15T09:32:13.873Z,4.00
2023-05-15T09:33:13.755Z,4.10
2023-05-15T09:34:13.719Z,3.90
2023-05-15T09:35:13.712Z,4.10
2023-05-15T09:36:13.715Z,3.60
2023-05-15T09:37:13.706Z,4.00
2023-05-15T09:38:13.682Z,3.80
2023-05-15T09:39:13.672Z,3.70
2023-05-15T09:40:13.671Z,4.10
2023-05-15T09:41:13.674Z,4.20
2023-05-15T09:42:13.641Z,4.50
2023-05-15T09:43:13.640Z,4.00
2023-05-15T09:44:13.616Z,4.80
2023-05-15T09:45:13.607Z,4.30
2023-05-15T09:46:13.674Z,3.90
2023-05-15T09:47:13.684Z,3.80
2023-05-15T09:48:13.657Z,4.30
2023-05-15T09:49:13.582Z,3.90
2023-05-15T09:50:13.549Z,4.60
2023-05-15T09:51:13.564Z,5.10
2023-05-15T09:52:13.534Z,4.20
2023-05-15T09:53:13.522Z,4.70
2023-05-15T09:54:13.498Z,6.60
2023-05-15T09:55:13.510Z,11.90
2023-05-15T09:56:13.500Z,5.70
2023-05-15T09:57:13.478Z,4.00
2023-05-15T09:58:13.463Z,4.30
2023-05-15T09:59:13.456Z,4.60
2023-05-15T10:00:13.445Z,4.10
2023-05-15T10:01:13.515Z,4.10
2023-05-15T10:02:13.420Z,4.00
2023-05-15T10:03:13.445Z,4.20
2023-05-15T10:04:15.882Z,4.00
2023-05-15T10:05:13.424Z,3.70
2023-05-15T10:06:13.403Z,4.20
2023-05-15T10:07:13.371Z,3.90
2023-05-15T10:08:13.347Z,3.40
2023-05-15T10:09:13.354Z,3.80
2023-05-15T10:10:13.356Z,3.60
2023-05-15T10:11:13.337Z,3.80
2023-05-15T10:12:13.309Z,3.80
2023-05-15T10:13:13.311Z,4.10
2023-05-15T10:14:13.322Z,3.80
2023-05-15T10:15:13.284Z,3.60
2023-05-15T10:16:13.334Z,4.10
2023-05-15T10:17:13.257Z,3.90
2023-05-15T10:18:13.320Z,4.00
2023-05-15T10:19:13.510Z,3.80
2023-05-15T10:20:13.236Z,3.90
2023-05-15T10:21:13.232Z,3.90
2023-05-15T10:22:13.202Z,4.00
2023-05-15T10:23:13.189Z,3.70
2023-05-15T10:24:13.182Z,3.70
2023-05-15T10:25:13.212Z,3.90
2023-05-15T10:26:13.201Z,3.50
2023-05-15T10:27:13.172Z,3.70
2023-05-15T10:28:13.878Z,3.90
2023-05-15T10:29:13.157Z,4.10
2023-05-15T10:30:13.141Z,3.90
2023-05-15T10:31:13.206Z,3.70
2023-05-15T10:32:13.092Z,4.20
2023-05-15T10:33:13.212Z,3.90
2023-05-15T10:34:13.076Z,3.80
2023-05-15T10:35:13.073Z,4.10
2023-05-15T10:36:13.081Z,3.60
2023-05-15T10:37:13.046Z,3.70
2023-05-15T10:38:13.038Z,3.60
2023-05-15T10:39:13.025Z,3.70
2023-05-15T10:40:13.041Z,4.10
2023-05-15T10:41:17.641Z,3.70
2023-05-15T10:42:12.994Z,3.40
2023-05-15T10:43:13.008Z,4.00
2023-05-15T10:44:12.968Z,3.90
2023-05-15T10:45:12.961Z,4.60
2023-05-15T10:46:12.967Z,3.90
2023-05-15T10:47:12.995Z,4.00
2023-05-15T10:48:12.964Z,3.80
2023-05-15T10:49:12.916Z,3.60
2023-05-15T10:50:12.931Z,3.80
2023-05-15T10:51:12.913Z,4.10
2023-05-15T10:52:12.923Z,3.90
2023-05-15T10:53:12.880Z,3.90
2023-05-15T10:54:12.864Z,4.10
2023-05-15T10:55:12.872Z,3.80
2023-05-15T10:56:12.882Z,4.10
2023-05-15T10:57:12.828Z,4.30
2023-05-15T10:58:12.826Z,3.50
2023-05-15T10:59:12.835Z,4.20
2023-05-15T11:00:12.788Z,4.30
2023-05-15T11:01:12.838Z,4.10
2023-05-15T11:02:12.785Z,4.00
2023-05-15T11:03:12.785Z,4.20
2023-05-15T11:04:12.795Z,3.70
2023-05-15T11:05:12.754Z,4.00
2023-05-15T11:06:12.834Z,3.90
2023-05-15T11:07:12.723Z,4.10
2023-05-15T11:08:12.701Z,5.70
2023-05-15T11:09:12.696Z,5.10
2023-05-15T11:10:12.685Z,4.20
2023-05-15T11:11:12.687Z,3.80
2023-05-15T11:12:12.663Z,4.20
2023-05-15T11:13:12.678Z,4.20
2023-05-15T11:14:12.638Z,4.50
2023-05-15T11:15:12.634Z,4.50
2023-05-15T11:16:14.139Z,3.90
2023-05-15T11:17:12.779Z,4.20
2023-05-15T11:18:12.748Z,4.20
2023-05-15T11:19:12.660Z,4.40
2023-05-15T11:20:12.571Z,4.20
2023-05-15T11:21:12.593Z,4.30
2023-05-15T11:22:12.610Z,4.00
2023-05-15T11:23:12.543Z,4.70
2023-05-15T11:24:12.539Z,3.90
2023-05-15T11:25:12.552Z,4.70
2023-05-15T11:26:12.528Z,4.70
2023-05-15T11:27:12.511Z,4.20
2023-05-15T11:28:12.505Z,4.70
2023-05-15T11:29:12.486Z,4.60
2023-05-15T11:30:12.474Z,4.20
2023-05-15T11:31:12.509Z,4.70
2023-05-15T11:32:12.452Z,5.20
2023-05-15T11:33:12.458Z,4.60
2023-05-15T11:34:12.428Z,4.70
2023-05-15T11:35:12.426Z,4.30
2023-05-15T11:36:12.413Z,4.20
2023-05-15T11:37:12.398Z,4.50
2023-05-15T11:38:12.382Z,4.20
2023-05-15T11:39:12.375Z,4.90
2023-05-15T11:40:12.419Z,4.70
2023-05-15T11:41:12.364Z,4.80
2023-05-15T11:42:12.352Z,4.60
2023-05-15T11:43:12.337Z,4.60
2023-05-15T11:44:12.319Z,4.30
2023-05-15T11:45:12.331Z,4.10
2023-05-15T11:46:12.378Z,3.80
2023-05-15T11:47:12.292Z,4.10
2023-05-15T11:48:12.292Z,4.60
2023-05-15T11:49:12.273Z,4.10
2023-05-15T11:50:12.345Z,4.20
2023-05-15T11:51:12.260Z,4.80
2023-05-15T11:52:12.236Z,4.40
2023-05-15T11:53:12.237Z,5.00
2023-05-15T11:54:12.227Z,4.40
2023-05-15T11:55:12.213Z,3.90
2023-05-15T11:56:12.207Z,5.00
2023-05-15T11:57:12.185Z,4.40
2023-05-15T11:58:12.178Z,4.30
2023-05-15T11:59:12.168Z,4.00
2023-05-15T12:00:12.160Z,4.30
2023-05-15T12:01:12.175Z,4.40
2023-05-15T12:02:12.128Z,4.20
2023-05-15T12:03:12.230Z,4.10
2023-05-15T12:04:12.321Z,3.90
2023-05-15T12:05:12.137Z,4.00
2023-05-15T12:06:12.132Z,2.90
2023-05-15T12:07:12.091Z,3.10
2023-05-15T12:08:12.069Z,3.40
2023-05-15T12:09:12.069Z,3.00
2023-05-15T12:10:12.054Z,3.00
2023-05-15T12:11:12.044Z,2.80
2023-05-15T12:12:12.019Z,3.20
2023-05-15T12:13:12.011Z,2.90
2023-05-15T12:14:12.000Z,3.40
2023-05-15T12:15:11.992Z,3.50
2023-05-15T12:16:12.024Z,3.80
2023-05-15T12:17:11.974Z,3.90
2023-05-15T12:18:11.963Z,4.10
2023-05-15T12:19:12.069Z,4.50
2023-05-15T12:20:11.939Z,4.90
2023-05-15T12:21:11.944Z,4.60
2023-05-15T12:22:11.927Z,4.80
2023-05-15T12:23:11.909Z,5.00
2023-05-15T12:24:11.923Z,5.10
2023-05-15T12:25:11.882Z,5.20
2023-05-15T12:26:11.892Z,5.70
2023-05-15T12:27:11.879Z,5.80
2023-05-15T12:28:11.858Z,5.20
2023-05-15T12:29:11.845Z,5.10
2023-05-15T12:30:11.833Z,4.80
2023-05-15T12:31:11.841Z,4.50
2023-05-15T12:32:11.856Z,5.00
2023-05-15T12:33:11.936Z,4.60
2023-05-15T12:34:11.788Z,5.00
2023-05-15T12:35:11.782Z,4.80
2023-05-15T12:36:11.811Z,5.00
2023-05-15T12:37:11.757Z,4.60
2023-05-15T12:38:11.745Z,4.70
2023-05-15T12:39:11.738Z,5.00
2023-05-15T12:40:11.808Z,4.50
2023-05-15T12:41:11.733Z,5.20
2023-05-15T12:42:11.745Z,4.70
2023-05-15T12:43:11.705Z,4.70
2023-05-15T12:44:11.688Z,4.90
2023-05-15T12:45:11.679Z,4.60
2023-05-15T12:46:11.710Z,4.60
2023-05-15T12:47:11.649Z,4.30
2023-05-15T12:48:11.707Z,4.90
2023-05-15T12:49:11.722Z,4.60
2023-05-15T12:50:11.612Z,4.60
2023-05-15T12:51:11.636Z,4.90
2023-05-15T12:52:11.600Z,4.70
2023-05-15T12:53:11.593Z,4.50
2023-05-15T12:54:11.586Z,4.40
2023-05-15T12:55:11.571Z,4.80
2023-05-15T12:56:11.575Z,4.80
2023-05-15T12:57:11.560Z,5.20
2023-05-15T12:58:11.526Z,4.80
2023-05-15T12:59:11.527Z,5.20
2023-05-15T13:00:11.549Z,5.40
2023-05-15T13:01:11.555Z,5.90
2023-05-15T13:02:11.486Z,6.10
2023-05-15T13:03:11.709Z,6.30
2023-05-15T13:04:11.480Z,6.10
2023-05-15T13:05:11.477Z,5.80
2023-05-15T13:06:11.464Z,6.30
2023-05-15T13:07:11.445Z,6.10
2023-05-15T13:08:11.419Z,6.20
2023-05-15T13:09:11.438Z,6.10
2023-05-15T13:10:11.417Z,6.80
2023-05-15T13:11:11.417Z,7.00
2023-05-15T13:12:11.370Z,7.30
2023-05-15T13:13:11.409Z,7.70
2023-05-15T13:14:11.350Z,8.50
2023-05-15T13:15:11.347Z,7.80